Time;durP1;ratioP1;P1;durP2;ratioP2;P2;SDS_P1;SDS_P2;PMS_P1;PMS_P2;Temp;Humidity;BMP_temperature;BMP_pressure;BME280_temperature;BME280_humidity;BME280_pressure;Samples;Min_cycle;Max_cycle;Signal;HPM_P1;HPM_P2
2024/01/30 00:01:12;;;;;;;23.30;17.45;;;;;;;0.41;100.00;97583.25;5077511;28;20028;-68
2024/01/30 00:03:37;;;;;;;27.20;19.52;;;;;;;0.41;100.00;97591.88;5072987;28;20048;-68
2024/01/30 00:06:06;;;;;;;37.55;20.73;;;;;;;0.39;100.00;97583.28;5069207;28;20151;-68
2024/01/30 00:08:31;;;;;;;25.08;19.30;;;;;;;0.38;100.00;97583.31;5071852;28;20055;-68
2024/01/30 00:10:57;;;;;;;30.10;23.17;;;;;;;0.32;100.00;97581.69;5069443;28;20082;-68
2024/01/30 00:13:22;;;;;;;27.23;19.83;;;;;;;0.32;100.00;97588.59;5067239;28;20028;-67
2024/01/30 00:15:48;;;;;;;26.92;19.92;;;;;;;0.31;100.00;97581.72;5067368;28;20033;-67
2024/01/30 00:18:13;;;;;;;25.77;18.83;;;;;;;0.25;100.00;97577.53;5069442;28;20017;-68
2024/01/30 00:20:39;;;;;;;26.83;19.77;;;;;;;0.23;100.00;97574.97;5070291;28;20040;-67
2024/01/30 00:23:04;;;;;;;26.45;17.65;;;;;;;0.24;100.00;97584.44;5075930;28;20031;-67
2024/01/30 00:25:30;;;;;;;28.88;19.35;;;;;;;0.23;100.00;97587.09;5070990;28;20036;-68
2024/01/30 00:27:56;;;;;;;24.75;18.77;;;;;;;0.20;100.00;97581.94;5073296;28;20028;-67
2024/01/30 00:30:21;;;;;;;30.30;21.55;;;;;;;0.22;100.00;97593.13;5067860;28;20548;-68
2024/01/30 00:32:46;;;;;;;37.47;23.65;;;;;;;0.22;100.00;97586.22;5074539;28;20150;-68
2024/01/30 00:35:12;;;;;;;29.40;20.02;;;;;;;0.23;100.00;97587.94;5068731;28;20059;-68
2024/01/30 00:37:37;;;;;;;22.88;16.52;;;;;;;0.25;100.00;97588.75;5069907;28;20036;-67
2024/01/30 00:40:03;;;;;;;24.45;16.10;;;;;;;0.22;100.00;97590.53;5065278;28;20055;-67
2024/01/30 00:42:29;;;;;;;23.30;15.07;;;;;;;0.24;100.00;97583.63;5064493;28;20072;-68
2024/01/30 00:44:54;;;;;;;24.85;17.52;;;;;;;0.23;100.00;97582.75;5066047;28;20518;-68
2024/01/30 00:47:20;;;;;;;22.75;16.27;;;;;;;0.20;100.00;97575.03;5065834;28;20046;-68
2024/01/30 00:49:45;;;;;;;21.83;16.25;;;;;;;0.19;100.00;97580.25;5069042;28;20033;-67
2024/01/30 00:52:11;;;;;;;21.15;15.48;;;;;;;0.20;100.00;97576.75;5066679;28;20035;-68
2024/01/30 00:54:37;;;;;;;21.77;16.35;;;;;;;0.17;100.00;97572.50;5065623;28;20056;-68
2024/01/30 00:57:02;;;;;;;21.27;15.38;;;;;;;0.17;100.00;97567.34;5076970;28;20028;-68
2024/01/30 00:59:27;;;;;;;20.50;12.88;;;;;;;0.16;100.00;97570.81;5072161;28;20036;-68
2024/01/30 01:01:53;;;;;;;16.85;11.15;;;;;;;0.12;100.00;97566.59;5060942;28;20024;-68
2024/01/30 01:04:18;;;;;;;13.35;11.18;;;;;;;0.10;100.00;97560.56;5066799;28;20095;-67
2024/01/30 01:06:44;;;;;;;14.38;11.23;;;;;;;0.08;100.00;97562.31;5070791;28;20036;-68
2024/01/30 01:09:11;;;;;;;15.27;11.63;;;;;;;0.05;100.00;97565.84;5069140;28;20123;-68
2024/01/30 01:11:37;;;;;;;22.38;13.85;;;;;;;0.05;100.00;97563.25;5068396;28;20040;-67
2024/01/30 01:14:03;;;;;;;18.90;12.88;;;;;;;0.06;100.00;97561.50;5065976;28;20066;-67
2024/01/30 01:16:28;;;;;;;18.77;10.70;;;;;;;0.07;100.00;97563.22;5066437;28;20025;-67
2024/01/30 01:18:54;;;;;;;10.18;8.70;;;;;;;0.04;100.00;97564.16;5069012;28;20032;-67
2024/01/30 01:21:19;;;;;;;11.13;9.15;;;;;;;0.02;100.00;97563.31;5065057;28;20468;-68
2024/01/30 01:23:45;;;;;;;12.85;9.15;;;;;;;0.05;100.00;97567.56;5066250;28;20497;-67
2024/01/30 01:26:10;;;;;;;16.60;11.13;;;;;;;0.10;100.00;97560.56;5068293;28;20036;-68
2024/01/30 01:28:36;;;;;;;26.48;14.88;;;;;;;0.22;100.00;97570.69;5068399;28;20021;-68
2024/01/30 01:31:05;;;;;;;22.58;14.40;;;;;;;0.19;100.00;97568.16;5062412;28;20031;-67
2024/01/30 01:33:34;;;;;;;18.88;13.43;;;;;;;0.21;100.00;97561.19;5068058;28;20477;-67
2024/01/30 01:36:02;;;;;;;20.80;14.10;;;;;;;0.14;100.00;97565.66;5069592;28;20116;-67
2024/01/30 01:38:28;;;;;;;23.90;14.18;;;;;;;0.14;100.00;97559.63;5067360;28;20032;-67
2024/01/30 01:40:53;;;;;;;20.17;11.85;;;;;;;0.13;100.00;97565.69;5059618;28;20046;-67
2024/01/30 01:43:19;;;;;;;15.35;10.73;;;;;;;0.10;100.00;97566.59;5067729;28;20051;-67
2024/01/30 01:45:45;;;;;;;13.75;8.88;;;;;;;0.13;100.00;97566.53;5065623;28;20068;-68
2024/01/30 01:48:12;;;;;;;12.10;9.48;;;;;;;0.13;100.00;97560.50;5065536;28;20020;-67
2024/01/30 01:50:38;;;;;;;13.65;9.93;;;;;;;0.15;100.00;97566.50;5071976;28;20058;-67
2024/01/30 01:53:07;;;;;;;11.07;8.93;;;;;;;0.10;100.00;97565.72;5068340;28;20112;-67
2024/01/30 01:55:33;;;;;;;11.85;8.70;;;;;;;0.02;100.00;97558.16;5068464;28;20392;-67
2024/01/30 01:57:58;;;;;;;10.60;7.75;;;;;;;0.03;100.00;97564.16;5067870;28;20032;-67
2024/01/30 02:00:24;;;;;;;11.05;7.75;;;;;;;-0.01;100.00;97569.41;5066962;28;20086;-68
2024/01/30 02:02:50;;;;;;;9.52;7.43;;;;;;;-0.01;100.00;97569.41;5066688;28;20033;-67
2024/01/30 02:05:16;;;;;;;10.50;8.13;;;;;;;-0.01;100.00;97569.41;5070055;28;20037;-67
2024/01/30 02:07:42;;;;;;;7.95;7.15;;;;;;;0.04;100.00;97565.88;5073982;28;20036;-68
2024/01/30 02:10:09;;;;;;;9.13;7.00;;;;;;;0.02;100.00;97565.91;5073868;28;20032;-68
2024/01/30 02:12:35;;;;;;;10.80;7.57;;;;;;;-0.02;100.00;97570.28;5075612;28;20079;-67
2024/01/30 02:15:01;;;;;;;8.75;6.68;;;;;;;-0.01;100.00;97572.00;5072491;28;20032;-67
2024/01/30 02:17:26;;;;;;;12.07;7.88;;;;;;;0.05;100.00;97568.44;5067007;28;20029;-67
2024/01/30 02:19:52;;;;;;;9.60;6.85;;;;;;;0.09;100.00;97561.44;5068525;28;20028;-67
2024/01/30 02:22:19;;;;;;;6.82;6.13;;;;;;;0.14;100.00;97562.22;5070675;28;20033;-67
2024/01/30 02:24:44;;;;;;;10.68;7.88;;;;;;;0.18;100.00;97566.44;5071385;28;20024;-67
2024/01/30 02:27:10;;;;;;;8.18;6.85;;;;;;;0.19;100.00;97562.97;5068800;28;20024;-67
2024/01/30 02:29:35;;;;;;;16.33;9.68;;;;;;;0.20;100.00;97561.22;5066453;28;20021;-68
2024/01/30 02:32:01;;;;;;;11.52;8.68;;;;;;;0.24;100.00;97558.53;5068325;28;20020;-67
2024/01/30 02:34:26;;;;;;;16.65;8.60;;;;;;;0.30;100.00;97556.69;5071985;28;20035;-67
2024/01/30 02:36:51;;;;;;;11.52;8.32;;;;;;;0.32;100.00;97560.09;5070241;28;20075;-67
2024/01/30 02:39:17;;;;;;;9.95;7.53;;;;;;;0.34;100.00;97554.00;5064382;28;20108;-68
2024/01/30 02:41:42;;;;;;;8.20;7.15;;;;;;;0.33;100.00;97551.44;5069295;28;20048;-67
2024/01/30 02:44:07;;;;;;;11.90;6.88;;;;;;;0.40;100.00;97548.69;5069478;28;20100;-67
2024/01/30 02:46:33;;;;;;;11.40;7.30;;;;;;;0.38;100.00;97552.22;5066828;28;20069;-68
2024/01/30 02:48:58;;;;;;;11.77;7.45;;;;;;;0.35;100.00;97550.53;5075784;28;20024;-67
2024/01/30 02:51:24;;;;;;;11.10;7.90;;;;;;;0.34;100.00;97548.00;5074456;28;20518;-67
2024/01/30 02:53:49;;;;;;;7.45;6.53;;;;;;;0.41;100.00;97546.97;5070252;28;20020;-67
2024/01/30 02:56:14;;;;;;;12.65;7.60;;;;;;;0.35;100.00;97553.13;5075176;28;20028;-67
2024/01/30 02:58:40;;;;;;;22.33;18.25;;;;;;;0.33;100.00;97551.44;5076275;28;20024;-67
2024/01/30 03:01:06;;;;;;;17.13;10.75;;;;;;;0.52;100.00;97546.72;5071721;28;20104;-68
2024/01/30 03:03:34;;;;;;;15.52;9.82;;;;;;;0.58;100.00;97544.00;5069542;28;20033;-67
2024/01/30 03:05:59;;;;;;;14.02;9.05;;;;;;;0.41;100.00;97549.56;5075329;28;20032;-68
2024/01/30 03:08:24;;;;;;;13.55;8.60;;;;;;;0.38;100.00;97549.63;5073872;28;20465;-67
2024/01/30 03:10:50;;;;;;;10.15;8.32;;;;;;;0.39;100.00;97548.75;5071776;28;20028;-67
2024/01/30 03:13:15;;;;;;;10.07;8.75;;;;;;;0.40;100.00;97555.63;5064982;28;20029;-68
2024/01/30 03:15:40;;;;;;;16.83;10.48;;;;;;;0.42;100.00;97552.09;5071896;28;20472;-68
2024/01/30 03:18:06;;;;;;;8.93;7.63;;;;;;;0.55;100.00;97547.53;5072193;28;20423;-67
2024/01/30 03:20:31;;;;;;;9.25;7.40;;;;;;;0.48;100.00;97552.88;5076506;28;20091;-68
2024/01/30 03:22:59;;;;;;;8.73;7.75;;;;;;;0.44;100.00;97554.66;5074557;28;20024;-67
2024/01/30 03:25:24;;;;;;;9.65;7.32;;;;;;;0.39;100.00;97552.16;5065286;28;20032;-67
2024/01/30 03:27:50;;;;;;;7.97;6.93;;;;;;;0.38;100.00;97555.66;5061082;28;20504;-67
2024/01/30 03:30:15;;;;;;;8.13;6.88;;;;;;;0.32;100.00;97560.97;5068682;28;20089;-68
2024/01/30 03:32:40;;;;;;;8.63;7.28;;;;;;;0.26;100.00;97554.19;5073310;28;20029;-68
2024/01/30 03:35:06;;;;;;;9.65;6.80;;;;;;;0.26;100.00;97554.19;5069420;28;20039;-68
2024/01/30 03:37:31;;;;;;;6.85;5.75;;;;;;;0.26;100.00;97554.19;5069569;28;20036;-68
2024/01/30 03:39:57;;;;;;;6.72;6.05;;;;;;;0.28;100.00;97546.38;5069909;28;20386;-67
2024/01/30 03:42:22;;;;;;;6.70;5.75;;;;;;;0.30;100.00;97546.34;5065223;28;20064;-68
2024/01/30 03:44:48;;;;;;;6.30;5.30;;;;;;;0.31;100.00;97553.22;5072772;28;20077;-67
2024/01/30 03:47:13;;;;;;;6.53;5.90;;;;;;;0.34;100.00;97545.41;5071047;28;20025;-68
2024/01/30 03:49:39;;;;;;;8.25;6.18;;;;;;;0.35;100.00;97552.28;5066381;28;20081;-67
2024/01/30 03:52:04;;;;;;;7.40;6.68;;;;;;;0.38;100.00;97547.03;5067234;28;20807;-68
2024/01/30 03:54:30;;;;;;;8.07;6.13;;;;;;;0.38;100.00;97550.47;5074160;28;20050;-68
2024/01/30 03:56:55;;;;;;;7.28;6.47;;;;;;;0.36;100.00;97552.25;5072966;28;20572;-68
2024/01/30 03:59:23;;;;;;;6.85;6.20;;;;;;;0.36;100.00;97554.84;5063474;28;20025;-68
2024/01/30 04:01:50;;;;;;;8.90;5.78;;;;;;;0.35;100.00;97554.88;5069642;28;20031;-68
2024/01/30 04:04:16;;;;;;;6.30;5.70;;;;;;;0.34;100.00;97555.78;5066559;28;20029;-68
2024/01/30 04:06:41;;;;;;;8.52;5.45;;;;;;;0.28;100.00;97554.16;5064957;28;20790;-68
2024/01/30 04:09:07;;;;;;;11.23;4.95;;;;;;;0.27;100.00;97553.28;5071817;28;20059;-68
2024/01/30 04:11:32;;;;;;;6.22;5.63;;;;;;;0.27;100.00;97558.47;5071141;28;20086;-68
2024/01/30 04:13:58;;;;;;;5.88;5.20;;;;;;;0.23;100.00;97561.19;5071391;28;20040;-67
2024/01/30 04:16:23;;;;;;;7.05;6.05;;;;;;;0.23;100.00;97561.19;5070825;28;20036;-68
2024/01/30 04:18:49;;;;;;;5.25;4.75;;;;;;;0.35;100.00;97557.47;5069018;28;20021;-68
2024/01/30 04:21:14;;;;;;;6.25;5.18;;;;;;;0.36;100.00;97559.19;5082271;28;20047;-68
2024/01/30 04:23:41;;;;;;;6.03;5.53;;;;;;;0.28;100.00;97555.00;5073024;28;20080;-68
2024/01/30 04:26:06;;;;;;;7.40;5.35;;;;;;;0.20;100.00;97562.09;5078639;28;20020;-68
2024/01/30 04:28:32;;;;;;;6.88;5.22;;;;;;;0.12;100.00;97559.66;5073824;28;20035;-68
2024/01/30 04:30:57;;;;;;;10.57;8.55;;;;;;;0.08;100.00;97558.00;5065381;28;20039;-68
2024/01/30 04:33:23;;;;;;;14.60;10.23;;;;;;;0.02;100.00;97559.88;5070558;28;20414;-68
2024/01/30 04:35:48;;;;;;;11.15;9.48;;;;;;;-0.03;100.00;97566.00;5063784;28;20120;-68
2024/01/30 04:38:14;;;;;;;12.90;10.98;;;;;;;-0.02;100.00;97559.06;5063378;28;20035;-68
2024/01/30 04:40:40;;;;;;;12.63;9.02;;;;;;;-0.03;100.00;97553.06;5070648;28;20474;-68
2024/01/30 04:43:05;;;;;;;9.80;8.05;;;;;;;-0.04;100.00;97566.00;5076378;28;20055;-68
2024/01/30 04:45:31;;;;;;;9.52;7.97;;;;;;;-0.03;100.00;97566.00;5061645;28;20032;-67
2024/01/30 04:47:57;;;;;;;8.93;7.93;;;;;;;-0.03;100.00;97567.72;5063841;28;20106;-68
2024/01/30 04:50:23;;;;;;;9.57;8.65;;;;;;;-0.02;100.00;97562.53;5054798;28;20017;-67
2024/01/30 04:52:48;;;;;;;13.10;10.50;;;;;;;-0.08;100.00;97557.47;5067803;28;20083;-68
2024/01/30 04:55:14;;;;;;;8.73;7.72;;;;;;;-0.16;100.00;97564.53;5073360;28;20029;-68
2024/01/30 04:57:39;;;;;;;11.43;8.38;;;;;;;-0.18;100.00;97567.16;5066485;28;20038;-68
2024/01/30 05:00:06;;;;;;;12.20;9.10;;;;;;;-0.16;100.00;97562.78;5065304;28;20024;-68
2024/01/30 05:02:31;;;;;;;10.85;9.00;;;;;;;-0.15;100.00;97564.50;5072586;28;20035;-68
2024/01/30 05:04:57;;;;;;;11.45;9.10;;;;;;;-0.14;100.00;97565.34;5078169;28;20024;-68
2024/01/30 05:07:24;;;;;;;12.93;8.27;;;;;;;-0.02;100.00;97569.41;5073569;28;20036;-68
2024/01/30 05:09:49;;;;;;;13.90;10.90;;;;;;;-0.01;100.00;97566.81;5070956;28;20028;-68
2024/01/30 05:12:15;;;;;;;19.88;17.88;;;;;;;0.19;100.00;97567.28;5068756;28;20029;-68
2024/01/30 05:14:40;;;;;;;13.82;12.40;;;;;;;0.25;100.00;97565.44;5068173;28;20028;-68
2024/01/30 05:17:06;;;;;;;13.68;9.82;;;;;;;0.16;100.00;97568.22;5063036;28;20134;-68
2024/01/30 05:19:31;;;;;;;10.40;9.13;;;;;;;0.11;100.00;97570.91;5062041;28;20064;-68
2024/01/30 05:21:56;;;;;;;11.52;9.05;;;;;;;0.12;100.00;97569.19;5072529;28;20169;-67
2024/01/30 05:24:22;;;;;;;13.73;11.63;;;;;;;0.13;100.00;97571.72;5066660;28;20032;-68
2024/01/30 05:26:48;;;;;;;11.35;9.13;;;;;;;0.14;100.00;97573.41;5064428;28;20036;-68
2024/01/30 05:29:13;;;;;;;12.88;10.93;;;;;;;0.19;100.00;97570.75;5068374;28;20027;-68
2024/01/30 05:31:39;;;;;;;12.25;10.95;;;;;;;0.19;100.00;97572.47;5066407;28;20024;-68
2024/01/30 05:34:04;;;;;;;20.10;10.27;;;;;;;0.18;100.00;97578.53;5066502;28;20056;-67
2024/01/30 05:36:29;;;;;;;16.00;11.25;;;;;;;0.17;100.00;97580.28;5068176;28;20428;-68
2024/01/30 05:38:56;;;;;;;17.73;13.48;;;;;;;0.16;100.00;97590.66;5065411;28;20092;-68
2024/01/30 05:41:22;;;;;;;26.48;14.63;;;;;;;0.18;100.00;97591.50;5067054;28;20045;-69
2024/01/30 05:43:47;;;;;;;19.15;13.43;;;;;;;0.18;100.00;97594.06;5065376;28;20404;-68
2024/01/30 05:46:13;;;;;;;21.55;14.90;;;;;;;0.08;100.00;97593.41;5071226;28;20542;-68
2024/01/30 05:48:38;;;;;;;18.15;13.68;;;;;;;0.06;100.00;97595.19;5066911;28;20111;-68
2024/01/30 05:51:04;;;;;;;18.73;13.25;;;;;;;0.04;100.00;97597.81;5066937;28;20081;-67
2024/01/30 05:53:29;;;;;;;23.88;14.75;;;;;;;0.07;100.00;97597.75;5075469;28;20473;-68
2024/01/30 05:55:55;;;;;;;21.42;15.65;;;;;;;0.07;100.00;97602.94;5067114;28;20064;-68
2024/01/30 05:58:21;;;;;;;18.58;15.68;;;;;;;0.01;100.00;97603.06;5065982;28;20138;-68
2024/01/30 06:00:47;;;;;;;17.75;14.50;;;;;;;-0.05;100.00;97598.84;5072702;28;20430;-68
2024/01/30 06:03:12;;;;;;;15.13;11.70;;;;;;;-0.04;100.00;97603.13;5063721;28;20033;-68
2024/01/30 06:05:37;;;;;;;20.23;13.30;;;;;;;-0.01;100.00;97599.63;5071527;28;20044;-68
2024/01/30 06:08:03;;;;;;;17.77;11.65;;;;;;;0.01;100.00;97603.06;5072128;28;20032;-68
2024/01/30 06:10:28;;;;;;;12.48;10.52;;;;;;;-0.02;100.00;97593.59;5074967;28;20028;-68
2024/01/30 06:12:54;;;;;;;12.82;10.55;;;;;;;-0.04;100.00;97607.44;5070278;28;20068;-68
2024/01/30 06:15:19;;;;;;;12.45;9.30;;;;;;;-0.08;100.00;97598.03;5074812;28;20032;-68
2024/01/30 06:17:44;;;;;;;13.02;11.63;;;;;;;-0.10;100.00;97610.16;5070219;28;20052;-68
2024/01/30 06:20:10;;;;;;;15.00;12.75;;;;;;;0.01;100.00;97609.97;5068782;28;20151;-68
2024/01/30 06:22:35;;;;;;;13.80;12.30;;;;;;;-0.03;100.00;97616.91;5074306;28;20029;-68
2024/01/30 06:25:01;;;;;;;17.90;11.30;;;;;;;-0.12;100.00;97623.13;5067187;28;20509;-68
2024/01/30 06:27:27;;;;;;;14.57;11.70;;;;;;;-0.18;100.00;97612.88;5066514;28;20032;-68
2024/01/30 06:29:52;;;;;;;15.15;11.73;;;;;;;-0.20;100.00;97625.00;5074539;28;20024;-67
2024/01/30 06:32:17;;;;;;;14.63;12.10;;;;;;;-0.18;100.00;97628.44;5074856;28;20454;-68
2024/01/30 06:34:44;;;;;;;25.08;17.25;;;;;;;-0.02;100.00;97632.44;5070580;28;20092;-68
2024/01/30 06:37:09;;;;;;;22.77;16.33;;;;;;;-0.03;100.00;97633.34;5062887;28;20068;-68
2024/01/30 06:39:35;;;;;;;21.20;15.73;;;;;;;-0.07;100.00;97630.81;5071651;28;20136;-68
2024/01/30 06:42:00;;;;;;;21.73;15.80;;;;;;;-0.11;100.00;97640.41;5066312;28;20052;-68
2024/01/30 06:44:25;;;;;;;20.95;16.50;;;;;;;-0.12;100.00;97635.22;5065757;28;20039;-69
2024/01/30 06:46:51;;;;;;;19.83;17.25;;;;;;;-0.12;100.00;97649.03;5067712;28;20077;-68
2024/01/30 06:49:16;;;;;;;18.08;13.93;;;;;;;-0.08;100.00;97648.09;5064365;28;20056;-68
2024/01/30 06:51:42;;;;;;;19.25;13.27;;;;;;;-0.17;100.00;97651.72;5065808;28;20025;-68
2024/01/30 06:54:07;;;;;;;21.15;13.65;;;;;;;-0.18;100.00;97654.31;5070664;28;20037;-67
2024/01/30 06:56:32;;;;;;;16.77;12.68;;;;;;;-0.19;100.00;97657.78;5065506;28;20035;-66
2024/01/30 06:58:59;;;;;;;18.95;13.07;;;;;;;-0.21;100.00;97659.56;5068337;28;20043;-69
2024/01/30 07:01:30;;;;;;;14.05;12.15;;;;;;;-0.26;100.00;97656.19;5066581;28;20033;-66
2024/01/30 07:03:57;;;;;;;18.15;12.73;;;;;;;-0.31;100.00;97659.72;5070440;28;20179;-69
2024/01/30 07:06:22;;;;;;;14.73;11.60;;;;;;;-0.36;100.00;97658.94;5068008;28;20500;-67
2024/01/30 07:08:49;;;;;;;15.00;10.45;;;;;;;-0.36;100.00;97668.44;5072146;28;20038;-68
2024/01/30 07:11:22;;;;;;;10.85;9.75;;;;;;;-0.36;100.00;97666.69;5069135;28;20040;-68
2024/01/30 07:13:48;;;;;;;14.18;10.82;;;;;;;-0.39;100.00;97658.97;5071645;28;20036;-68
2024/01/30 07:16:14;;;;;;;16.17;10.10;;;;;;;-0.38;100.00;97662.44;5067495;28;20371;-67
2024/01/30 07:18:39;;;;;;;11.82;10.10;;;;;;;-0.44;100.00;97660.81;5069756;28;20028;-68
2024/01/30 07:21:05;;;;;;;15.13;10.45;;;;;;;-0.45;100.00;97670.28;5067584;28;20063;-67
2024/01/30 07:23:30;;;;;;;12.00;10.80;;;;;;;-0.45;100.00;97667.69;5072878;28;20514;-68
2024/01/30 07:25:56;;;;;;;18.00;11.70;;;;;;;-0.44;100.00;97660.81;5068020;28;20032;-69
2024/01/30 07:28:21;;;;;;;13.43;11.68;;;;;;;-0.39;100.00;97665.91;5068270;28;20032;-68
2024/01/30 07:30:48;;;;;;;22.13;12.30;;;;;;;-0.35;100.00;97673.56;5068140;28;20082;-70
2024/01/30 07:33:13;;;;;;;19.98;12.32;;;;;;;-0.32;100.00;97668.38;5070611;28;20024;-67
2024/01/30 07:35:39;;;;;;;13.60;11.43;;;;;;;-0.27;100.00;97673.44;5063168;28;20036;-66
2024/01/30 07:38:04;;;;;;;15.30;11.52;;;;;;;-0.22;100.00;97675.97;5060118;28;20028;-67
2024/01/30 07:40:29;;;;;;;21.33;10.90;;;;;;;-0.20;100.00;97679.38;5068371;28;20112;-67
2024/01/30 07:42:55;;;;;;;14.77;12.20;;;;;;;-0.23;100.00;97679.44;5060450;28;20080;-66
2024/01/30 07:45:22;;;;;;;21.70;14.32;;;;;;;-0.22;100.00;97684.59;5063402;28;20094;-66
2024/01/30 07:47:49;;;;;;;17.92;12.80;;;;;;;-0.15;100.00;97688.78;5069209;28;20382;-65
2024/01/30 07:50:15;;;;;;;22.55;14.40;;;;;;;-0.13;100.00;97690.50;5062765;28;20020;-67
2024/01/30 07:52:40;;;;;;;34.90;22.13;;;;;;;-0.13;100.00;97696.50;5067619;28;20037;-67
2024/01/30 07:55:07;;;;;;;30.10;22.73;;;;;;;-0.04;100.00;97696.38;5067516;28;20036;-67
2024/01/30 07:57:33;;;;;;;28.65;23.75;;;;;;;-0.08;100.00;97707.66;5061615;28;20110;-67
2024/01/30 07:59:59;;;;;;;38.55;24.92;;;;;;;-0.07;100.00;97696.44;5062187;28;20040;-66
2024/01/30 08:02:24;;;;;;;41.17;22.48;;;;;;;-0.03;100.00;97690.31;5069416;28;20025;-67
2024/01/30 08:04:50;;;;;;;39.22;24.77;;;;;;;0.09;100.00;97699.59;5060965;28;20040;-66
2024/01/30 08:07:17;;;;;;;34.15;26.83;;;;;;;0.11;100.00;97703.00;5063026;28;20521;-67
2024/01/30 08:09:42;;;;;;;33.17;23.17;;;;;;;0.11;100.00;97702.13;5068397;28;20021;-66
2024/01/30 08:12:08;;;;;;;31.42;23.52;;;;;;;0.17;100.00;97696.88;5070646;28;20028;-67
2024/01/30 08:14:33;;;;;;;32.55;23.33;;;;;;;0.22;100.00;97695.03;5057505;28;20029;-67
2024/01/30 08:16:59;;;;;;;26.90;23.35;;;;;;;0.30;100.00;97696.63;5064366;28;20043;-68
2024/01/30 08:19:24;;;;;;;22.85;20.17;;;;;;;0.36;100.00;97691.34;5069661;28;20032;-68
2024/01/30 08:21:50;;;;;;;30.65;18.63;;;;;;;0.37;100.00;97688.69;5063480;28;20043;-67
2024/01/30 08:24:15;;;;;;;20.85;17.73;;;;;;;0.44;100.00;97692.03;5068752;28;20078;-67
2024/01/30 08:26:40;;;;;;;32.53;17.52;;;;;;;0.51;100.00;97687.59;5065952;28;20039;-67
2024/01/30 08:29:06;;;;;;;23.42;16.80;;;;;;;0.62;100.00;97693.41;5062977;28;20029;-68
2024/01/30 08:31:31;;;;;;;27.73;16.55;;;;;;;0.75;100.00;97699.19;5059629;28;20191;-68
2024/01/30 08:33:57;;;;;;;27.58;18.92;;;;;;;0.90;100.00;97692.84;5063807;28;20081;-68
2024/01/30 08:36:22;;;;;;;29.75;17.27;;;;;;;1.02;100.00;97694.31;5062561;28;20025;-68
2024/01/30 08:38:48;;;;;;;26.48;18.70;;;;;;;1.08;100.00;97696.75;5061840;28;20043;-67
2024/01/30 08:41:13;;;;;;;34.88;18.63;;;;;;;1.17;100.00;97700.91;5061931;28;20371;-68
2024/01/30 08:43:38;;;;;;;28.25;18.45;;;;;;;1.26;100.00;97700.69;5062178;28;20028;-68
2024/01/30 08:46:04;;;;;;;33.80;18.88;;;;;;;1.42;100.00;97695.97;5066305;28;20075;-68
2024/01/30 08:48:29;;;;;;;39.50;18.50;;;;;;;1.55;100.00;97696.56;5065409;28;20028;-68
2024/01/30 08:50:55;;;;;;;28.77;18.60;;;;;;;1.68;100.00;97689.31;5066072;28;20024;-68
2024/01/30 08:53:20;;;;;;;42.28;23.80;;;;;;;1.81;100.00;97687.28;5062167;28;20036;-68
2024/01/30 08:55:45;;;;;;;37.83;27.38;;;;;;;1.95;100.00;97686.06;5066222;28;20044;-67
2024/01/30 08:58:11;;;;;;;33.42;22.40;;;;;;;2.11;100.00;97673.53;5065069;28;20494;-68
2024/01/30 09:00:36;;;;;;;49.38;25.20;;;;;;;2.26;100.00;97667.06;5064587;28;20024;-68
2024/01/30 09:03:03;;;;;;;39.65;27.05;;;;;;;2.37;100.00;97682.38;5062211;28;20131;-68
2024/01/30 09:05:28;;;;;;;58.03;34.08;;;;;;;2.47;100.00;97673.41;5067022;28;20097;-68
2024/01/30 09:07:54;;;;;;;34.45;22.73;;;;;;;2.53;100.00;97675.81;5060295;28;20032;-68
2024/01/30 09:10:20;;;;;;;33.97;22.52;;;;;;;2.55;100.00;97668.00;5061864;28;20088;-68
2024/01/30 09:12:45;;;;;;;59.55;38.70;;;;;;;2.57;100.00;97664.47;5061488;28;20033;-68
2024/01/30 09:15:11;;;;;;;42.30;25.67;;;;;;;2.66;100.00;97657.28;5065395;28;20036;-68
2024/01/30 09:17:36;;;;;;;44.80;34.42;;;;;;;2.74;100.00;97657.06;5057498;28;20130;-68
2024/01/30 09:20:02;;;;;;;28.08;23.15;;;;;;;2.86;100.00;97652.34;5064140;28;20025;-69
2024/01/30 09:22:27;;;;;;;24.27;16.20;;;;;;;2.98;100.00;97647.66;5062656;28;20520;-68
2024/01/30 09:24:53;;;;;;;20.85;14.82;;;;;;;3.09;100.00;97649.94;5064363;28;20036;-68
2024/01/30 09:27:18;;;;;;;21.17;14.20;;;;;;;3.18;100.00;97643.59;5064408;28;20033;-68
2024/01/30 09:29:43;;;;;;;18.58;15.07;;;;;;;3.38;100.00;97646.41;5066503;28;20399;-70
2024/01/30 09:32:09;;;;;;;19.05;13.38;;;;;;;3.60;100.00;97648.31;5065615;28;20112;-69
2024/01/30 09:34:35;;;;;;;14.57;11.13;;;;;;;3.85;100.00;97637.94;5065491;28;20745;-67
2024/01/30 09:37:00;;;;;;;11.93;10.05;;;;;;;4.04;100.00;97633.84;5061987;28;20491;-68
2024/01/30 09:39:26;;;;;;;11.20;10.02;;;;;;;4.25;100.00;97625.25;5057134;28;20056;-68
2024/01/30 09:42:04;;;;;;;19.65;13.27;;;;;;;4.35;100.00;97619.72;5070337;28;20050;-68
2024/01/30 09:44:30;;;;;;;22.38;17.40;;;;;;;4.72;100.00;97623.56;5056256;28;20029;-68
2024/01/30 09:46:58;;;;;;;46.20;32.08;;;;;;;5.31;100.00;97616.06;5064550;28;20032;-68
2024/01/30 09:49:25;;;;;;;46.28;37.50;;;;;;;5.84;100.00;97612.16;5062519;28;20044;-68
2024/01/30 09:51:50;;;;;;;10.55;9.43;;;;;;;6.23;100.00;97610.50;5060560;28;20043;-68
2024/01/30 09:54:16;;;;;;;19.15;17.25;;;;;;;6.58;100.00;97605.47;5064233;28;20037;-68
2024/01/30 09:56:42;;;;;;;12.90;11.70;;;;;;;6.87;100.00;97595.41;5064652;28;20031;-68
2024/01/30 09:59:08;;;;;;;13.70;9.32;;;;;;;7.15;100.00;97588.84;5063490;28;20024;-68
2024/01/30 10:01:35;;;;;;;8.98;8.18;;;;;;;7.30;100.00;97589.03;5062375;28;21069;-68
2024/01/30 10:04:00;;;;;;;7.50;5.47;;;;;;;7.40;100.00;97577.19;5067278;28;20032;-68
2024/01/30 10:06:26;;;;;;;11.48;10.48;;;;;;;7.55;100.00;97578.22;5057755;28;20021;-68
2024/01/30 10:08:52;;;;;;;7.18;6.47;;;;;;;7.49;100.00;97573.25;5060581;28;20713;-68
2024/01/30 10:11:17;;;;;;;6.97;6.38;;;;;;;7.55;100.00;97574.72;5061012;28;20024;-68
2024/01/30 10:13:42;;;;;;;7.88;6.82;;;;;;;7.59;100.00;97576.25;5062300;28;20136;-68
2024/01/30 10:16:08;;;;;;;9.30;5.75;;;;;;;7.59;100.00;97577.13;5058932;28;20663;-68
2024/01/30 10:18:33;;;;;;;11.35;6.85;;;;;;;7.63;100.00;97576.97;5062541;28;20033;-69
2024/01/30 10:20:59;;;;;;;9.65;4.90;;;;;;;7.76;100.00;97577.19;5060478;28;20032;-68
2024/01/30 10:23:25;;;;;;;6.85;5.25;;;;;;;7.76;100.00;97579.81;5064477;28;20081;-68
2024/01/30 10:25:53;;;;;;;6.35;5.75;;;;;;;7.85;100.00;97576.75;5067654;28;20063;-68
2024/01/30 10:28:18;;;;;;;12.30;5.40;;;;;;;7.92;100.00;97566.75;5072324;28;20046;-68
2024/01/30 10:30:44;;;;;;;12.63;5.28;;;;;;;7.99;100.00;97565.53;5067900;28;20032;-68
2024/01/30 10:33:09;;;;;;;5.82;5.22;;;;;;;8.07;100.00;97565.97;5066006;28;20061;-68
2024/01/30 10:35:35;;;;;;;7.22;5.40;;;;;;;8.22;100.00;97556.44;5069719;28;20051;-68
2024/01/30 10:38:00;;;;;;;5.15;4.65;;;;;;;8.46;100.00;97556.06;5074366;28;20036;-68
2024/01/30 10:40:29;;;;;;;6.50;4.20;;;;;;;8.62;100.00;97553.50;5062665;28;20032;-67
2024/01/30 10:42:56;;;;;;;4.18;3.88;;;;;;;8.69;100.00;97551.34;5066915;28;20044;-67
2024/01/30 10:45:22;;;;;;;4.80;4.30;;;;;;;8.94;100.00;97542.97;5065558;28;20420;-68
2024/01/30 10:47:56;;;;;;;4.93;4.45;;;;;;;8.99;100.00;97543.56;5063593;28;20059;-67
2024/01/30 10:50:24;;;;;;;7.45;4.65;;;;;;;9.20;100.00;97542.44;5064000;28;20027;-68
2024/01/30 10:52:50;;;;;;;5.85;3.97;;;;;;;9.15;100.00;97525.13;5060729;28;20040;-68
2024/01/30 10:55:18;;;;;;;5.40;4.10;;;;;;;9.13;100.00;97521.75;5061897;28;20413;-68
2024/01/30 10:57:43;;;;;;;5.35;4.25;;;;;;;9.26;100.00;97521.06;5062269;28;20072;-68
2024/01/30 11:00:12;;;;;;;5.38;3.92;;;;;;;9.28;100.00;97521.81;5059223;28;20056;-68
2024/01/30 11:02:39;;;;;;;4.80;4.32;;;;;;;9.29;100.00;97529.63;5072005;28;20033;-68
2024/01/30 11:05:05;;;;;;;5.82;3.88;;;;;;;9.38;100.00;97530.00;5063634;28;20083;-68
2024/01/30 11:07:31;;;;;;;4.25;3.83;;;;;;;9.45;100.00;97528.69;5062241;28;20032;-69
2024/01/30 11:10:09;;;;;;;5.10;4.57;;;;;;;9.57;100.00;97521.88;5065207;28;20092;-69
2024/01/30 11:12:43;;;;;;;7.18;4.80;;;;;;;9.77;100.00;97527.75;5068434;28;20036;-68
2024/01/30 11:15:10;;;;;;;5.07;4.28;;;;;;;10.13;100.00;97519.41;5069544;28;20116;-68